sensor_id;sensor_type;location;lat;lon;timestamp;pressure;altitude;pressure_sealevel;temperature;humidity
63819;BME280;49970;54.976;73.248;2023-05-19T00:02:09;101962.75;;;7.52;52.04
63819;BME280;49970;54.976;73.248;2023-05-19T00:04:36;101974.00;;;7.58;52.26
63819;BME280;49970;54.976;73.248;2023-05-19T00:07:05;101965.22;;;7.58;52.17
63819;BME280;49970;54.976;73.248;2023-05-19T00:09:35;101973.91;;;7.61;52.37
63819;BME280;49970;54.976;73.248;2023-05-19T00:12:02;101955.69;;;7.54;52.32
63819;BME280;49970;54.976;73.248;2023-05-19T00:14:28;101971.16;;;7.64;52.23
63819;BME280;49970;54.976;73.248;2023-05-19T00:16:55;101972.84;;;7.67;52.14
63819;BME280;49970;54.976;73.248;2023-05-19T00:19:22;101972.06;;;7.63;51.81
63819;BME280;49970;54.976;73.248;2023-05-19T00:21:50;101978.91;;;7.69;51.85
63819;BME280;49970;54.976;73.248;2023-05-19T00:24:16;101977.09;;;7.71;52.12
63819;BME280;49970;54.976;73.248;2023-05-19T00:26:42;101975.31;;;7.71;52.09
63819;BME280;49970;54.976;73.248;2023-05-19T00:29:08;101978.00;;;7.70;52.30
63819;BME280;49970;54.976;73.248;2023-05-19T00:31:34;101970.97;;;7.70;52.14
63819;BME280;49970;54.976;73.248;2023-05-19T00:34:01;101972.63;;;7.73;51.95
63819;BME280;49970;54.976;73.248;2023-05-19T00:36:27;101974.38;;;7.74;52.27
63819;BME280;49970;54.976;73.248;2023-05-19T00:38:55;101974.25;;;7.77;51.91
63819;BME280;49970;54.976;73.248;2023-05-19T00:41:21;101972.50;;;7.78;52.70
63819;BME280;49970;54.976;73.248;2023-05-19T00:43:49;101970.56;;;7.83;52.38
63819;BME280;49970;54.976;73.248;2023-05-19T00:46:18;101961.78;;;7.82;52.34
63819;BME280;49970;54.976;73.248;2023-05-19T00:48:44;101976.38;;;7.92;52.34
63819;BME280;49970;54.976;73.248;2023-05-19T00:51:11;101976.19;;;7.98;51.96
63819;BME280;49970;54.976;73.248;2023-05-19T00:53:39;101971.50;;;8.07;52.06
63819;BME280;49970;54.976;73.248;2023-05-19T00:56:06;101970.44;;;8.12;52.05
63819;BME280;49970;54.976;73.248;2023-05-19T00:58:33;101977.19;;;8.21;52.05
63819;BME280;49970;54.976;73.248;2023-05-19T01:01:01;101968.75;;;8.35;51.57
63819;BME280;49970;54.976;73.248;2023-05-19T01:03:33;101973.28;;;8.58;51.08
63819;BME280;49970;54.976;73.248;2023-05-19T01:06:01;101963.16;;;8.69;51.08
63819;BME280;49970;54.976;73.248;2023-05-19T01:08:31;101981.97;;;9.08;50.83
63819;BME280;49970;54.976;73.248;2023-05-19T01:10:58;101973.88;;;9.35;50.39
63819;BME280;49970;54.976;73.248;2023-05-19T01:13:26;101961.84;;;9.50;49.98
63819;BME280;49970;54.976;73.248;2023-05-19T01:18:44;101965.81;;;10.02;50.00
63819;BME280;49970;54.976;73.248;2023-05-19T01:23:53;101967.84;;;10.58;49.19
63819;BME280;49970;54.976;73.248;2023-05-19T01:31:38;101966.00;;;11.55;47.74
63819;BME280;49970;54.976;73.248;2023-05-19T01:34:08;101965.50;;;11.83;47.13
63819;BME280;49970;54.976;73.248;2023-05-19T01:36:40;101968.81;;;12.05;46.86
63819;BME280;49970;54.976;73.248;2023-05-19T01:39:10;101975.81;;;12.41;46.46
63819;BME280;49970;54.976;73.248;2023-05-19T01:41:40;101961.66;;;12.74;46.37
63819;BME280;49970;54.976;73.248;2023-05-19T01:44:08;101966.19;;;13.05;45.75
63819;BME280;49970;54.976;73.248;2023-05-19T01:46:36;101957.47;;;13.34;44.81
63819;BME280;49970;54.976;73.248;2023-05-19T01:49:03;101957.44;;;13.66;44.35
63819;BME280;49970;54.976;73.248;2023-05-19T01:51:30;101949.66;;;13.93;44.10
63819;BME280;49970;54.976;73.248;2023-05-19T01:53:56;101965.63;;;14.23;43.37
63819;BME280;49970;54.976;73.248;2023-05-19T01:56:43;101964.69;;;14.38;43.01
63819;BME280;49970;54.976;73.248;2023-05-19T01:59:36;101960.53;;;14.49;42.56
63819;BME280;49970;54.976;73.248;2023-05-19T02:02:18;101959.22;;;14.84;42.46
63819;BME280;49970;54.976;73.248;2023-05-19T02:04:58;101956.84;;;15.21;42.27
63819;BME280;49970;54.976;73.248;2023-05-19T02:07:38;101952.75;;;15.57;41.73
63819;BME280;49970;54.976;73.248;2023-05-19T02:10:13;101956.72;;;15.78;41.88
63819;BME280;49970;54.976;73.248;2023-05-19T02:12:44;101958.91;;;15.99;41.12
63819;BME280;49970;54.976;73.248;2023-05-19T02:15:16;101952.50;;;16.01;40.79
63819;BME280;49970;54.976;73.248;2023-05-19T02:17:43;101937.84;;;16.07;40.43
63819;BME280;49970;54.976;73.248;2023-05-19T02:20:15;101952.31;;;16.30;40.10
63819;BME280;49970;54.976;73.248;2023-05-19T02:23:02;101969.56;;;16.64;40.19
63819;BME280;49970;54.976;73.248;2023-05-19T02:26:52;101966.78;;;16.78;39.72
63819;BME280;49970;54.976;73.248;2023-05-19T02:30:43;101955.22;;;16.65;39.58
63819;BME280;49970;54.976;73.248;2023-05-19T02:34:35;101953.06;;;16.19;40.48
63819;BME280;49970;54.976;73.248;2023-05-19T02:38:26;101963.41;;;15.71;40.63
63819;BME280;49970;54.976;73.248;2023-05-19T02:42:17;101956.66;;;15.24;41.62
63819;BME280;49970;54.976;73.248;2023-05-19T02:49:57;101947.78;;;14.82;41.38
63819;BME280;49970;54.976;73.248;2023-05-19T02:53:48;101962.25;;;14.78;41.13
63819;BME280;49970;54.976;73.248;2023-05-19T02:57:39;101964.47;;;14.72;41.23
63819;BME280;49970;54.976;73.248;2023-05-19T03:01:30;101962.81;;;14.83;41.41
63819;BME280;49970;54.976;73.248;2023-05-19T03:05:21;101963.03;;;14.66;41.63
63819;BME280;49970;54.976;73.248;2023-05-19T03:13:27;101952.28;;;14.23;42.42
63819;BME280;49970;54.976;73.248;2023-05-19T03:17:20;101958.81;;;14.62;41.21
63819;BME280;49970;54.976;73.248;2023-05-19T03:21:10;101957.31;;;14.86;41.10
63819;BME280;49970;54.976;73.248;2023-05-19T03:25:26;101961.88;;;14.70;41.24
63819;BME280;49970;54.976;73.248;2023-05-19T03:33:06;101961.84;;;15.13;40.99
63819;BME280;49970;54.976;73.248;2023-05-19T03:37:22;101945.44;;;15.19;40.19
63819;BME280;49970;54.976;73.248;2023-05-19T03:41:14;101938.88;;;15.10;41.02
63819;BME280;49970;54.976;73.248;2023-05-19T03:45:05;101954.31;;;15.19;40.27
63819;BME280;49970;54.976;73.248;2023-05-19T03:49:40;101943.91;;;15.15;40.66
63819;BME280;49970;54.976;73.248;2023-05-19T04:01:32;101921.53;;;15.44;39.85
63819;BME280;49970;54.976;73.248;2023-05-19T04:05:29;101943.75;;;15.45;39.73
63819;BME280;49970;54.976;73.248;2023-05-19T04:07:55;101939.16;;;15.47;39.51
63819;BME280;49970;54.976;73.248;2023-05-19T04:10:22;101947.19;;;15.47;40.59
63819;BME280;49970;54.976;73.248;2023-05-19T04:12:48;101933.91;;;15.45;39.25
63819;BME280;49970;54.976;73.248;2023-05-19T04:15:15;101942.22;;;15.41;40.24
63819;BME280;49970;54.976;73.248;2023-05-19T04:17:41;101940.38;;;15.56;39.68
63819;BME280;49970;54.976;73.248;2023-05-19T04:20:09;101936.81;;;15.69;38.76
63819;BME280;49970;54.976;73.248;2023-05-19T04:22:35;101933.63;;;15.77;38.96
63819;BME280;49970;54.976;73.248;2023-05-19T04:25:01;101933.19;;;15.83;38.58
63819;BME280;49970;54.976;73.248;2023-05-19T04:27:29;101938.66;;;15.82;39.04
63819;BME280;49970;54.976;73.248;2023-05-19T04:29:57;101956.19;;;15.86;38.56
63819;BME280;49970;54.976;73.248;2023-05-19T04:32:24;101931.28;;;15.73;38.48
63819;BME280;49970;54.976;73.248;2023-05-19T04:34:52;101937.34;;;15.75;39.07
63819;BME280;49970;54.976;73.248;2023-05-19T04:37:24;101930.88;;;15.91;38.78
63819;BME280;49970;54.976;73.248;2023-05-19T04:39:51;101917.19;;;15.96;38.76
63819;BME280;49970;54.976;73.248;2023-05-19T04:42:20;101923.63;;;15.93;38.46
63819;BME280;49970;54.976;73.248;2023-05-19T04:44:47;101924.59;;;16.05;38.65
63819;BME280;49970;54.976;73.248;2023-05-19T04:47:17;101923.00;;;16.28;37.78
63819;BME280;49970;54.976;73.248;2023-05-19T04:49:47;101931.47;;;16.35;37.25
63819;BME280;49970;54.976;73.248;2023-05-19T04:52:13;101933.06;;;16.37;37.80
63819;BME280;49970;54.976;73.248;2023-05-19T04:54:40;101930.06;;;16.42;37.62
63819;BME280;49970;54.976;73.248;2023-05-19T04:57:09;101932.09;;;16.38;37.38
63819;BME280;49970;54.976;73.248;2023-05-19T04:59:37;101921.84;;;16.32;37.65
63819;BME280;49970;54.976;73.248;2023-05-19T05:02:06;101918.72;;;16.26;37.89
63819;BME280;49970;54.976;73.248;2023-05-19T05:04:35;101906.44;;;16.23;37.68
63819;BME280;49970;54.976;73.248;2023-05-19T05:07:01;101905.78;;;16.32;37.37
63819;BME280;49970;54.976;73.248;2023-05-19T05:09:28;101917.25;;;16.47;37.89
63819;BME280;49970;54.976;73.248;2023-05-19T05:11:57;101905.78;;;16.58;38.25
63819;BME280;49970;54.976;73.248;2023-05-19T05:14:24;101908.34;;;16.72;38.51
63819;BME280;49970;54.976;73.248;2023-05-19T05:17:11;101905.03;;;16.56;38.01
63819;BME280;49970;54.976;73.248;2023-05-19T05:21:04;101924.63;;;16.43;38.10
63819;BME280;49970;54.976;73.248;2023-05-19T05:24:55;101926.84;;;16.50;37.67
63819;BME280;49970;54.976;73.248;2023-05-19T05:28:48;101919.47;;;16.66;37.75
63819;BME280;49970;54.976;73.248;2023-05-19T05:32:41;101829.25;;;16.06;37.64
63819;BME280;49970;54.976;73.248;2023-05-19T05:36:57;101907.59;;;16.44;38.10
63819;BME280;49970;54.976;73.248;2023-05-19T05:40:48;101898.59;;;16.58;38.26
63819;BME280;49970;54.976;73.248;2023-05-19T05:44:41;101909.63;;;16.54;37.81
63819;BME280;49970;54.976;73.248;2023-05-19T05:48:35;101908.97;;;16.50;38.46
63819;BME280;49970;54.976;73.248;2023-05-19T05:51:47;101895.94;;;16.46;37.58
63819;BME280;49970;54.976;73.248;2023-05-19T05:54:15;101884.38;;;16.45;37.82
63819;BME280;49970;54.976;73.248;2023-05-19T05:56:45;101883.84;;;16.53;38.16
63819;BME280;49970;54.976;73.248;2023-05-19T05:59:13;101879.84;;;16.71;38.32
63819;BME280;49970;54.976;73.248;2023-05-19T06:02:00;101887.03;;;16.83;37.42
63819;BME280;49970;54.976;73.248;2023-05-19T06:05:53;101871.78;;;16.97;37.00
63819;BME280;49970;54.976;73.248;2023-05-19T06:09:22;101878.69;;;17.12;36.95
63819;BME280;49970;54.976;73.248;2023-05-19T06:11:48;101876.41;;;17.18;36.85
63819;BME280;49970;54.976;73.248;2023-05-19T06:14:34;101863.41;;;17.25;37.08
63819;BME280;49970;54.976;73.248;2023-05-19T06:18:48;101855.94;;;17.17;36.76
63819;BME280;49970;54.976;73.248;2023-05-19T06:22:19;101857.13;;;17.13;36.28
63819;BME280;49970;54.976;73.248;2023-05-19T06:24:46;101853.31;;;17.05;36.46
63819;BME280;49970;54.976;73.248;2023-05-19T06:27:12;101843.53;;;16.92;36.23
63819;BME280;49970;54.976;73.248;2023-05-19T06:29:39;101846.94;;;16.95;36.45
63819;BME280;49970;54.976;73.248;2023-05-19T06:32:07;101866.41;;;16.97;36.72
63819;BME280;49970;54.976;73.248;2023-05-19T06:34:34;101849.63;;;16.95;37.24
63819;BME280;49970;54.976;73.248;2023-05-19T06:37:00;101846.06;;;17.07;37.45
63819;BME280;49970;54.976;73.248;2023-05-19T06:39:27;101838.31;;;17.15;37.56
63819;BME280;49970;54.976;73.248;2023-05-19T06:41:54;101832.53;;;17.08;36.96
63819;BME280;49970;54.976;73.248;2023-05-19T06:44:43;101836.63;;;17.01;36.80
63819;BME280;49970;54.976;73.248;2023-05-19T06:47:11;101832.38;;;16.99;36.23
63819;BME280;49970;54.976;73.248;2023-05-19T06:49:37;101821.31;;;17.03;36.46
63819;BME280;49970;54.976;73.248;2023-05-19T06:52:04;101836.81;;;17.11;36.62
63819;BME280;49970;54.976;73.248;2023-05-19T06:54:30;101822.13;;;17.16;36.45
63819;BME280;49970;54.976;73.248;2023-05-19T06:56:56;101819.38;;;17.29;36.19
63819;BME280;49970;54.976;73.248;2023-05-19T06:59:23;101824.78;;;17.40;36.03
63819;BME280;49970;54.976;73.248;2023-05-19T07:01:50;101824.03;;;17.38;35.68
63819;BME280;49970;54.976;73.248;2023-05-19T07:04:18;101813.84;;;17.43;35.76
63819;BME280;49970;54.976;73.248;2023-05-19T07:06:44;101811.59;;;17.37;36.35
63819;BME280;49970;54.976;73.248;2023-05-19T07:09:11;101805.28;;;17.38;36.66
63819;BME280;49970;54.976;73.248;2023-05-19T07:11:39;101810.28;;;17.43;36.80
63819;BME280;49970;54.976;73.248;2023-05-19T07:14:05;101802.25;;;17.43;36.87
63819;BME280;49970;54.976;73.248;2023-05-19T07:16:32;101804.31;;;17.39;36.15
63819;BME280;49970;54.976;73.248;2023-05-19T07:18:58;101805.41;;;17.37;36.38
63819;BME280;49970;54.976;73.248;2023-05-19T07:21:25;101802.25;;;17.43;36.48
63819;BME280;49970;54.976;73.248;2023-05-19T07:23:51;101796.66;;;17.46;36.76
63819;BME280;49970;54.976;73.248;2023-05-19T07:26:18;101797.78;;;17.55;36.62
63819;BME280;49970;54.976;73.248;2023-05-19T07:28:45;101788.66;;;17.57;36.21
63819;BME280;49970;54.976;73.248;2023-05-19T07:31:11;101793.66;;;17.62;36.11
63819;BME280;49970;54.976;73.248;2023-05-19T07:33:37;101778.66;;;17.48;36.04
63819;BME280;49970;54.976;73.248;2023-05-19T07:36:03;101769.25;;;17.42;36.15
63819;BME280;49970;54.976;73.248;2023-05-19T07:38:30;101759.66;;;17.40;36.22
63819;BME280;49970;54.976;73.248;2023-05-19T07:41:00;101776.06;;;17.47;36.48
63819;BME280;49970;54.976;73.248;2023-05-19T07:43:26;101773.66;;;17.43;36.57
63819;BME280;49970;54.976;73.248;2023-05-19T07:45:53;101764.88;;;17.41;36.08
63819;BME280;49970;54.976;73.248;2023-05-19T07:48:21;101758.16;;;17.36;36.19
63819;BME280;49970;54.976;73.248;2023-05-19T07:50:49;101755.09;;;17.29;36.54
63819;BME280;49970;54.976;73.248;2023-05-19T07:53:16;101749.66;;;17.42;36.46
63819;BME280;49970;54.976;73.248;2023-05-19T07:55:42;101754.56;;;17.48;36.68
63819;BME280;49970;54.976;73.248;2023-05-19T07:58:08;101751.28;;;17.56;35.81
63819;BME280;49970;54.976;73.248;2023-05-19T08:00:35;101750.16;;;17.58;35.61
63819;BME280;49970;54.976;73.248;2023-05-19T08:03:01;101743.97;;;17.58;35.69
63819;BME280;49970;54.976;73.248;2023-05-19T08:05:28;101741.16;;;17.59;35.48
63819;BME280;49970;54.976;73.248;2023-05-19T08:07:55;101736.16;;;17.55;35.16
63819;BME280;49970;54.976;73.248;2023-05-19T08:10:22;101728.59;;;17.49;35.70
63819;BME280;49970;54.976;73.248;2023-05-19T08:12:48;101726.66;;;17.51;35.77
63819;BME280;49970;54.976;73.248;2023-05-19T08:15:14;101729.72;;;17.57;36.16
63819;BME280;49970;54.976;73.248;2023-05-19T08:17:41;101738.84;;;17.66;35.44
63819;BME280;49970;54.976;73.248;2023-05-19T08:20:07;101731.44;;;17.70;35.44
63819;BME280;49970;54.976;73.248;2023-05-19T08:22:37;101725.75;;;17.74;35.34
63819;BME280;49970;54.976;73.248;2023-05-19T08:25:04;101723.25;;;17.71;35.61
63819;BME280;49970;54.976;73.248;2023-05-19T08:27:31;101713.28;;;17.73;35.40
63819;BME280;49970;54.976;73.248;2023-05-19T08:29:58;101722.19;;;17.74;35.46
63819;BME280;49970;54.976;73.248;2023-05-19T08:32:24;101690.91;;;17.74;35.87
63819;BME280;49970;54.976;73.248;2023-05-19T08:34:50;101718.66;;;17.84;35.14
63819;BME280;49970;54.976;73.248;2023-05-19T08:37:16;101708.47;;;17.89;35.08
63819;BME280;49970;54.976;73.248;2023-05-19T08:39:43;101702.72;;;17.94;35.04
63819;BME280;49970;54.976;73.248;2023-05-19T08:42:09;101695.41;;;17.96;35.12
63819;BME280;49970;54.976;73.248;2023-05-19T08:44:37;101684.69;;;17.96;34.91
63819;BME280;49970;54.976;73.248;2023-05-19T08:47:04;101695.53;;;17.95;35.18
63819;BME280;49970;54.976;73.248;2023-05-19T08:49:43;101702.13;;;18.02;35.01
63819;BME280;49970;54.976;73.248;2023-05-19T08:55:02;101700.66;;;17.98;34.70
63819;BME280;49970;54.976;73.248;2023-05-19T08:57:29;101701.38;;;18.00;34.69
63819;BME280;49970;54.976;73.248;2023-05-19T08:59:59;101694.41;;;17.97;34.79
63819;BME280;49970;54.976;73.248;2023-05-19T09:02:26;101680.19;;;17.85;34.75
63819;BME280;49970;54.976;73.248;2023-05-19T09:04:53;101678.22;;;17.87;35.00
63819;BME280;49970;54.976;73.248;2023-05-19T09:07:21;101679.22;;;17.86;34.84
63819;BME280;49970;54.976;73.248;2023-05-19T09:09:50;101679.56;;;17.93;34.90
63819;BME280;49970;54.976;73.248;2023-05-19T09:12:16;101667.75;;;17.96;34.81
63819;BME280;49970;54.976;73.248;2023-05-19T09:15:03;101668.81;;;17.93;34.39
63819;BME280;49970;54.976;73.248;2023-05-19T09:18:55;101685.03;;;17.91;34.63
63819;BME280;49970;54.976;73.248;2023-05-19T09:26:24;101668.22;;;18.01;34.50
63819;BME280;49970;54.976;73.248;2023-05-19T09:28:50;101658.22;;;18.03;34.61
63819;BME280;49970;54.976;73.248;2023-05-19T09:31:17;101668.81;;;18.15;33.82
63819;BME280;49970;54.976;73.248;2023-05-19T09:33:43;101661.63;;;18.16;34.09
63819;BME280;49970;54.976;73.248;2023-05-19T09:36:10;101653.56;;;18.16;34.01
63819;BME280;49970;54.976;73.248;2023-05-19T09:38:38;101656.25;;;18.16;34.26
63819;BME280;49970;54.976;73.248;2023-05-19T09:41:06;101646.50;;;18.15;34.60
63819;BME280;49970;54.976;73.248;2023-05-19T09:43:33;101647.97;;;18.19;33.99
63819;BME280;49970;54.976;73.248;2023-05-19T09:46:08;101653.78;;;18.24;34.09
63819;BME280;49970;54.976;73.248;2023-05-19T09:48:36;101639.66;;;18.22;34.34
63819;BME280;49970;54.976;73.248;2023-05-19T09:51:03;101640.88;;;18.18;34.41
63819;BME280;49970;54.976;73.248;2023-05-19T09:53:31;101634.19;;;18.24;34.00
63819;BME280;49970;54.976;73.248;2023-05-19T09:56:00;101641.00;;;18.28;34.19
63819;BME280;49970;54.976;73.248;2023-05-19T09:58:30;101627.97;;;18.23;33.81
63819;BME280;49970;54.976;73.248;2023-05-19T10:01:00;101631.34;;;18.25;34.50
63819;BME280;49970;54.976;73.248;2023-05-19T10:03:27;101625.75;;;18.28;34.14
63819;BME280;49970;54.976;73.248;2023-05-19T10:05:54;101636.34;;;18.30;34.05
63819;BME280;49970;54.976;73.248;2023-05-19T10:08:22;101623.06;;;18.28;34.36
63819;BME280;49970;54.976;73.248;2023-05-19T10:10:51;101623.53;;;18.33;34.06
63819;BME280;49970;54.976;73.248;2023-05-19T10:13:18;101623.28;;;18.36;34.52
63819;BME280;49970;54.976;73.248;2023-05-19T10:15:45;101613.41;;;18.37;33.86
63819;BME280;49970;54.976;73.248;2023-05-19T10:18:14;101614.25;;;18.37;34.33
63819;BME280;49970;54.976;73.248;2023-05-19T10:20:43;101615.22;;;18.36;34.08
63819;BME280;49970;54.976;73.248;2023-05-19T10:23:09;101606.19;;;18.37;34.07
63819;BME280;49970;54.976;73.248;2023-05-19T10:25:36;101608.75;;;18.39;34.04
63819;BME280;49970;54.976;73.248;2023-05-19T10:28:13;101597.06;;;18.40;34.59
63819;BME280;49970;54.976;73.248;2023-05-19T10:30:47;101603.28;;;18.40;34.47
63819;BME280;49970;54.976;73.248;2023-05-19T10:33:16;101609.34;;;18.42;33.96
63819;BME280;49970;54.976;73.248;2023-05-19T10:39:02;101597.91;;;18.40;34.26
63819;BME280;49970;54.976;73.248;2023-05-19T10:41:46;101594.97;;;18.44;34.52
63819;BME280;49970;54.976;73.248;2023-05-19T10:47:10;101583.00;;;18.48;34.43
63819;BME280;49970;54.976;73.248;2023-05-19T10:49:38;101572.00;;;18.51;34.35
63819;BME280;49970;54.976;73.248;2023-05-19T10:52:18;101585.28;;;18.52;34.31
63819;BME280;49970;54.976;73.248;2023-05-19T10:54:46;101579.78;;;18.54;34.27
63819;BME280;49970;54.976;73.248;2023-05-19T10:57:16;101583.19;;;18.56;34.33
63819;BME280;49970;54.976;73.248;2023-05-19T10:59:43;101577.81;;;18.56;34.25
63819;BME280;49970;54.976;73.248;2023-05-19T11:02:43;101567.22;;;18.54;34.25
63819;BME280;49970;54.976;73.248;2023-05-19T11:05:14;101570.63;;;18.56;34.78
63819;BME280;49970;54.976;73.248;2023-05-19T11:07:44;101559.50;;;18.61;34.84
63819;BME280;49970;54.976;73.248;2023-05-19T11:10:23;101554.84;;;18.63;34.74
63819;BME280;49970;54.976;73.248;2023-05-19T11:13:17;101554.84;;;18.63;34.88
63819;BME280;49970;54.976;73.248;2023-05-19T11:20:55;101554.75;;;18.64;34.73
63819;BME280;49970;54.976;73.248;2023-05-19T11:24:09;101550.22;;;18.65;34.71
63819;BME280;49970;54.976;73.248;2023-05-19T11:27:18;101540.44;;;18.64;34.63
63819;BME280;49970;54.976;73.248;2023-05-19T11:30:30;101536.22;;;18.61;34.63
63819;BME280;49970;54.976;73.248;2023-05-19T11:32:57;101535.22;;;18.62;34.32
63819;BME280;49970;54.976;73.248;2023-05-19T11:35:24;101544.97;;;18.63;34.69
63819;BME280;49970;54.976;73.248;2023-05-19T11:37:53;101539.00;;;18.60;34.74
63819;BME280;49970;54.976;73.248;2023-05-19T11:40:25;101537.91;;;18.62;34.68
63819;BME280;49970;54.976;73.248;2023-05-19T11:42:57;101527.72;;;18.56;34.69
63819;BME280;49970;54.976;73.248;2023-05-19T11:45:30;101550.47;;;18.62;34.82
63819;BME280;49970;54.976;73.248;2023-05-19T11:47:58;101537.91;;;18.62;34.62
63819;BME280;49970;54.976;73.248;2023-05-19T11:50:24;101522.91;;;18.60;34.83
63819;BME280;49970;54.976;73.248;2023-05-19T11:52:51;101529.84;;;18.62;34.96
63819;BME280;49970;54.976;73.248;2023-05-19T11:55:18;101529.72;;;18.64;35.34
63819;BME280;49970;54.976;73.248;2023-05-19T11:57:58;101520.69;;;18.65;34.84
63819;BME280;49970;54.976;73.248;2023-05-19T12:00:25;101510.47;;;18.59;35.32
63819;BME280;49970;54.976;73.248;2023-05-19T12:02:52;101520.69;;;18.65;34.77
63819;BME280;49970;54.976;73.248;2023-05-19T12:05:23;101523.38;;;18.65;34.64
63819;BME280;49970;54.976;73.248;2023-05-19T12:07:50;101514.59;;;18.63;35.41
63819;BME280;49970;54.976;73.248;2023-05-19T12:10:21;101510.91;;;18.64;35.27
63819;BME280;49970;54.976;73.248;2023-05-19T12:12:49;101508.25;;;18.64;35.31
63819;BME280;49970;54.976;73.248;2023-05-19T12:15:22;101505.31;;;18.67;35.31
63819;BME280;49970;54.976;73.248;2023-05-19T12:17:55;101505.44;;;18.65;35.47
63819;BME280;49970;54.976;73.248;2023-05-19T12:20:22;101499.09;;;18.66;35.47
63819;BME280;49970;54.976;73.248;2023-05-19T12:22:50;101497.25;;;18.67;35.60
63819;BME280;49970;54.976;73.248;2023-05-19T12:25:16;101498.88;;;18.70;35.48
63819;BME280;49970;54.976;73.248;2023-05-19T12:27:43;101506.91;;;18.70;35.45
63819;BME280;49970;54.976;73.248;2023-05-19T12:30:10;101497.38;;;18.65;35.78
63819;BME280;49970;54.976;73.248;2023-05-19T12:32:38;101499.94;;;18.67;35.50
63819;BME280;49970;54.976;73.248;2023-05-19T12:35:05;101493.72;;;18.66;35.50
63819;BME280;49970;54.976;73.248;2023-05-19T12:37:32;101500.06;;;18.65;35.24
63819;BME280;49970;54.976;73.248;2023-05-19T12:40:03;101495.81;;;18.63;35.48
63819;BME280;49970;54.976;73.248;2023-05-19T12:42:29;101489.75;;;18.61;35.49
63819;BME280;49970;54.976;73.248;2023-05-19T12:45:01;101489.00;;;18.59;35.79
63819;BME280;49970;54.976;73.248;2023-05-19T12:47:34;101490.69;;;18.60;36.09
63819;BME280;49970;54.976;73.248;2023-05-19T12:50:05;101483.06;;;18.55;36.08
63819;BME280;49970;54.976;73.248;2023-05-19T12:52:40;101494.38;;;18.59;36.36
63819;BME280;49970;54.976;73.248;2023-05-19T12:55:07;101492.69;;;18.58;35.76
63819;BME280;49970;54.976;73.248;2023-05-19T12:57:37;101494.63;;;18.56;35.98
63819;BME280;49970;54.976;73.248;2023-05-19T13:00:06;101492.22;;;18.53;35.91
63819;BME280;49970;54.976;73.248;2023-05-19T13:05:29;101498.56;;;18.52;35.95
63819;BME280;49970;54.976;73.248;2023-05-19T13:08:00;101487.38;;;18.47;36.21
63819;BME280;49970;54.976;73.248;2023-05-19T13:10:30;101495.88;;;18.52;36.18
63819;BME280;49970;54.976;73.248;2023-05-19T13:12:57;101491.50;;;18.51;36.00
63819;BME280;49970;54.976;73.248;2023-05-19T13:15:26;101497.72;;;18.51;35.97
63819;BME280;49970;54.976;73.248;2023-05-19T13:17:53;101489.81;;;18.50;36.29
63819;BME280;49970;54.976;73.248;2023-05-19T13:20:20;101492.63;;;18.48;36.20
63819;BME280;49970;54.976;73.248;2023-05-19T13:22:47;101494.56;;;18.46;36.02
63819;BME280;49970;54.976;73.248;2023-05-19T13:25:14;101487.38;;;18.47;36.40
63819;BME280;49970;54.976;73.248;2023-05-19T13:27:41;101496.41;;;18.46;36.48
63819;BME280;49970;54.976;73.248;2023-05-19T13:30:07;101509.22;;;18.42;36.54
63819;BME280;49970;54.976;73.248;2023-05-19T13:32:34;101496.81;;;18.41;36.60
63819;BME280;49970;54.976;73.248;2023-05-19T13:35:00;101496.94;;;18.39;36.76
63819;BME280;49970;54.976;73.248;2023-05-19T13:37:27;101501.59;;;18.37;36.59
63819;BME280;49970;54.976;73.248;2023-05-19T13:39:53;101507.94;;;18.36;36.25
63819;BME280;49970;54.976;73.248;2023-05-19T13:42:20;101504.66;;;18.33;36.45
63819;BME280;49970;54.976;73.248;2023-05-19T13:44:46;101509.19;;;18.32;36.46
63819;BME280;49970;54.976;73.248;2023-05-19T13:47:12;101505.75;;;18.30;36.32
63819;BME280;49970;54.976;73.248;2023-05-19T13:49:39;101505.06;;;18.28;36.24
63819;BME280;49970;54.976;73.248;2023-05-19T13:52:06;101500.69;;;18.27;36.13
63819;BME280;49970;54.976;73.248;2023-05-19T13:54:33;101505.44;;;18.24;36.55
63819;BME280;49970;54.976;73.248;2023-05-19T13:56:59;101506.78;;;18.18;36.19
63819;BME280;49970;54.976;73.248;2023-05-19T13:59:26;101513.75;;;18.21;36.25
63819;BME280;49970;54.976;73.248;2023-05-19T14:01:53;101507.66;;;18.19;36.15
63819;BME280;49970;54.976;73.248;2023-05-19T14:04:19;101513.03;;;18.19;36.39
63819;BME280;49970;54.976;73.248;2023-05-19T14:06:45;101522.16;;;18.16;36.29
63819;BME280;49970;54.976;73.248;2023-05-19T14:09:12;101510.25;;;18.09;36.44
63819;BME280;49970;54.976;73.248;2023-05-19T14:11:39;101511.94;;;18.10;36.11
63819;BME280;49970;54.976;73.248;2023-05-19T14:14:05;101518.28;;;18.09;36.11
63819;BME280;49970;54.976;73.248;2023-05-19T14:16:32;101510.53;;;18.06;36.13
63819;BME280;49970;54.976;73.248;2023-05-19T14:18:59;101508.09;;;18.03;36.38
63819;BME280;49970;54.976;73.248;2023-05-19T14:21:26;101513.56;;;18.01;36.23
63819;BME280;49970;54.976;73.248;2023-05-19T14:23:54;101518.34;;;17.98;36.56
63819;BME280;49970;54.976;73.248;2023-05-19T14:26:20;101511.53;;;17.94;36.51
63819;BME280;49970;54.976;73.248;2023-05-19T14:28:46;101511.66;;;17.92;36.61
63819;BME280;49970;54.976;73.248;2023-05-19T14:31:13;101516.31;;;17.90;36.74
63819;BME280;49970;54.976;73.248;2023-05-19T14:33:40;101513.03;;;17.86;36.89